Time;durP1;ratioP1;P1;durP2;ratioP2;P2;SDS_P1;SDS_P2;PMS_P1;PMS_P2;Temp;Humidity;BMP_temperature;BMP_pressure;BME280_temperature;BME280_humidity;BME280_pressure;Samples;Min_cycle;Max_cycle;Signal;HPM_P1;HPM_P2
2022/03/04 00:00:15;;;;;;;24.50;17.73;;;;;;;-3.78;100.00;96534.84;4992177;28;20504;-73
2022/03/04 00:02:42;;;;;;;23.87;18.53;;;;;;;-3.78;100.00;96529.69;5008430;28;20440;-73
2022/03/04 00:05:09;;;;;;;30.53;18.07;;;;;;;-3.73;100.00;96525.41;4992937;28;20537;-74
2022/03/04 00:07:36;;;;;;;20.90;16.07;;;;;;;-3.47;100.00;96549.91;5008686;28;20451;-73
2022/03/04 00:10:03;;;;;;;25.00;17.30;;;;;;;-3.45;100.00;96554.84;4992049;28;20528;-73
2022/03/04 00:12:30;;;;;;;22.57;16.00;;;;;;;-3.25;100.00;96568.09;5008432;28;21004;-73
2022/03/04 00:14:57;;;;;;;29.90;19.70;;;;;;;-3.52;100.00;96539.47;5008390;28;20469;-73
2022/03/04 00:17:23;;;;;;;20.53;15.47;;;;;;;-3.73;100.00;96519.47;4993303;28;20519;-73
2022/03/04 00:19:50;;;;;;;22.97;16.63;;;;;;;-4.06;100.00;96496.88;4991850;28;20483;-73
2022/03/04 00:22:19;;;;;;;24.57;18.83;;;;;;;-3.65;100.00;96557.81;5007688;28;20551;-73
2022/03/04 00:24:46;;;;;;;21.60;15.07;;;;;;;-3.72;100.00;96563.13;4993006;28;20448;-73
2022/03/04 00:27:12;;;;;;;23.93;16.87;;;;;;;-3.70;100.00;96555.94;4991734;28;20467;-73
2022/03/04 00:29:39;;;;;;;25.37;16.57;;;;;;;-3.80;100.00;96567.88;5007931;28;20436;-73
2022/03/04 00:32:08;;;;;;;24.13;15.83;;;;;;;-3.77;100.00;96557.06;4992995;28;20938;-73
2022/03/04 00:34:35;;;;;;;25.10;17.77;;;;;;;-3.83;100.00;96547.66;5007923;28;20524;-73
2022/03/04 00:37:02;;;;;;;26.13;15.97;;;;;;;-3.57;100.00;96568.59;4993130;28;20425;-73
2022/03/04 00:39:28;;;;;;;21.70;16.33;;;;;;;-3.95;100.00;96540.72;5007804;28;20468;-73
2022/03/04 00:41:55;;;;;;;24.70;18.07;;;;;;;-4.02;100.00;96528.94;4992810;28;20457;-73
2022/03/04 00:44:22;;;;;;;20.00;16.47;;;;;;;-4.13;100.00;96558.97;5007919;28;20508;-73
2022/03/04 00:46:48;;;;;;;25.90;17.60;;;;;;;-4.23;100.00;96549.22;5007683;28;20950;-73
2022/03/04 00:49:15;;;;;;;25.10;17.80;;;;;;;-4.36;100.00;96521.06;5007868;28;20428;-73
2022/03/04 00:51:42;;;;;;;24.03;17.17;;;;;;;-4.40;100.00;96553.50;5007926;28;20472;-73
2022/03/04 00:54:09;;;;;;;24.93;17.60;;;;;;;-4.24;100.00;96562.34;5007594;28;20556;-73
2022/03/04 00:56:36;;;;;;;26.80;17.77;;;;;;;-4.07;100.00;96568.38;4991306;28;20444;-73
2022/03/04 00:59:04;;;;;;;24.83;17.17;;;;;;;-3.99;100.00;96572.41;5007645;28;20439;-73
2022/03/04 01:01:31;;;;;;;23.70;16.53;;;;;;;-3.80;100.00;96566.06;5007537;28;20468;-73
2022/03/04 01:03:58;;;;;;;20.83;16.07;;;;;;;-4.14;100.00;96544.47;4991432;28;20449;-73
2022/03/04 01:06:25;;;;;;;23.83;16.77;;;;;;;-4.04;100.00;96542.09;5007523;28;20484;-73
2022/03/04 01:08:52;;;;;;;24.37;17.97;;;;;;;-4.09;100.00;96549.75;4975213;28;20811;-73
2022/03/04 01:11:19;;;;;;;25.87;18.30;;;;;;;-3.95;100.00;96565.78;5007587;28;20469;-73
2022/03/04 01:13:45;;;;;;;24.03;17.13;;;;;;;-4.03;100.00;96550.63;5007415;28;20527;-73
2022/03/04 01:16:12;;;;;;;24.53;16.67;;;;;;;-3.91;100.00;96562.50;5010026;28;20456;-73
2022/03/04 01:18:39;;;;;;;25.07;17.90;;;;;;;-4.19;100.00;96534.03;5011608;28;20437;-73
2022/03/04 01:21:05;;;;;;;24.27;16.93;;;;;;;-4.15;100.00;96537.72;4995225;28;20491;-73
2022/03/04 01:23:32;;;;;;;19.47;15.93;;;;;;;-4.20;100.00;96524.75;5011419;28;20453;-73
2022/03/04 01:25:59;;;;;;;24.33;17.27;;;;;;;-4.20;100.00;96528.09;4996578;28;20774;-73
2022/03/04 01:28:25;;;;;;;25.90;18.60;;;;;;;-4.37;100.00;96522.06;4996365;28;20512;-73
2022/03/04 01:30:53;;;;;;;28.30;18.27;;;;;;;-4.37;100.00;96527.25;5011315;28;20433;-72
2022/03/04 01:33:20;;;;;;;24.37;17.70;;;;;;;-4.19;100.00;96559.84;5011191;28;20534;-72
2022/03/04 01:35:47;;;;;;;21.10;16.57;;;;;;;-4.26;100.00;96521.28;4996289;28;20795;-72
2022/03/04 01:38:14;;;;;;;21.70;17.07;;;;;;;-4.16;100.00;96547.28;4996346;28;20554;-72
2022/03/04 01:40:40;;;;;;;23.37;17.90;;;;;;;-4.11;100.00;96551.78;5011248;28;20866;-72
2022/03/04 01:43:07;;;;;;;25.83;16.23;;;;;;;-4.23;100.00;96531.16;4994819;28;20511;-73
2022/03/04 01:45:34;;;;;;;26.43;17.57;;;;;;;-4.19;100.00;96545.16;4994719;28;20531;-73
2022/03/04 01:48:01;;;;;;;26.90;17.90;;;;;;;-4.35;100.00;96512.31;4991418;28;20481;-73
2022/03/04 01:50:27;;;;;;;27.13;18.23;;;;;;;-4.33;100.00;96519.81;5004368;28;20470;-73
2022/03/04 01:52:55;;;;;;;21.90;17.70;;;;;;;-4.21;100.00;96541.22;4983099;28;20787;-73
2022/03/04 01:55:22;;;;;;;22.20;15.40;;;;;;;-4.28;100.00;96520.69;5011001;28;20531;-73
2022/03/04 01:57:50;;;;;;;23.60;17.10;;;;;;;-4.49;100.00;96510.97;4995881;28;20462;-73
2022/03/04 02:00:17;;;;;;;23.70;17.87;;;;;;;-4.33;100.00;96532.72;5010776;28;20436;-73
2022/03/04 02:02:44;;;;;;;23.60;17.17;;;;;;;-4.44;100.00;96530.94;4994305;28;20496;-73
2022/03/04 02:05:13;;;;;;;26.83;18.33;;;;;;;-4.51;100.00;96525.91;4995760;28;20436;-73
2022/03/04 02:07:40;;;;;;;24.90;18.40;;;;;;;-4.56;100.00;96533.50;4995654;28;20484;-73
2022/03/04 02:10:08;;;;;;;31.93;18.90;;;;;;;-4.69;100.00;96513.09;4994282;28;20431;-73
2022/03/04 02:12:38;;;;;;;20.83;15.80;;;;;;;-5.13;100.00;96469.63;4994416;28;20531;-73
2022/03/04 02:15:06;;;;;;;25.40;17.37;;;;;;;-4.54;100.00;96532.31;4978233;28;20506;-73
2022/03/04 02:17:34;;;;;;;22.80;17.17;;;;;;;-4.47;100.00;96534.75;4994433;28;20487;-72
2022/03/04 02:20:03;;;;;;;23.03;16.73;;;;;;;-4.87;100.00;96521.75;5010484;28;20445;-73
2022/03/04 02:22:31;;;;;;;22.07;16.30;;;;;;;-4.82;100.00;96545.84;5010625;28;20508;-73
2022/03/04 02:24:58;;;;;;;24.23;16.13;;;;;;;-4.89;100.00;96546.97;4994110;28;20531;-73
2022/03/04 02:27:25;;;;;;;20.43;16.20;;;;;;;-4.93;100.00;96526.00;4994898;28;20435;-72
2022/03/04 02:29:52;;;;;;;24.50;17.23;;;;;;;-4.76;100.00;96536.44;4994021;28;20524;-72
2022/03/04 02:32:18;;;;;;;23.63;15.30;;;;;;;-4.73;100.00;96523.09;4994110;28;20484;-72
2022/03/04 02:34:46;;;;;;;24.47;16.27;;;;;;;-4.64;100.00;96523.56;4994079;28;20463;-72
2022/03/04 02:37:14;;;;;;;23.00;14.23;;;;;;;-4.66;100.00;96541.06;4994237;28;21018;-72
2022/03/04 02:39:41;;;;;;;22.47;17.43;;;;;;;-4.67;100.00;96539.44;5010144;28;20527;-72
2022/03/04 02:42:09;;;;;;;22.90;15.63;;;;;;;-4.52;100.00;96550.13;4993830;28;20472;-72
2022/03/04 02:44:36;;;;;;;20.90;15.20;;;;;;;-4.66;100.00;96552.16;5010024;28;20563;-72
2022/03/04 02:47:04;;;;;;;21.43;15.17;;;;;;;-4.57;100.00;96547.41;4995131;28;20516;-72
2022/03/04 02:49:30;;;;;;;28.10;17.03;;;;;;;-4.98;100.00;96523.28;4993773;28;20531;-72
2022/03/04 02:51:57;;;;;;;23.77;15.57;;;;;;;-5.00;100.00;96537.41;5009925;28;20490;-72
2022/03/04 02:54:24;;;;;;;21.60;16.30;;;;;;;-4.93;100.00;96549.22;4993591;28;20520;-72
2022/03/04 02:56:51;;;;;;;24.40;17.57;;;;;;;-5.05;100.00;96550.97;5009886;28;20444;-72
2022/03/04 02:59:17;;;;;;;24.87;15.80;;;;;;;-5.03;100.00;96548.97;4993661;28;20499;-72
2022/03/04 03:01:44;;;;;;;23.73;16.00;;;;;;;-5.02;100.00;96555.69;5009803;28;20498;-72
2022/03/04 03:04:11;;;;;;;23.77;18.83;;;;;;;-5.28;100.00;96531.09;4993465;28;20839;-72
2022/03/04 03:06:38;;;;;;;25.70;16.63;;;;;;;-5.14;100.00;96555.66;4993453;28;20519;-72
2022/03/04 03:09:04;;;;;;;24.30;18.40;;;;;;;-5.31;100.00;96546.22;4993445;28;20428;-72
2022/03/04 03:11:32;;;;;;;24.87;17.93;;;;;;;-5.14;100.00;96558.25;4993315;28;20437;-72
2022/03/04 03:13:58;;;;;;;21.70;15.83;;;;;;;-5.21;100.00;96556.75;5009450;28;20488;-72
2022/03/04 03:16:25;;;;;;;23.50;16.30;;;;;;;-5.32;100.00;96560.09;5009546;28;20536;-73
2022/03/04 03:18:52;;;;;;;27.30;17.57;;;;;;;-5.29;100.00;96545.00;4996709;28;20432;-72
2022/03/04 03:21:19;;;;;;;31.63;16.10;;;;;;;-5.45;100.00;96538.69;4993059;28;20475;-72
2022/03/04 03:23:47;;;;;;;25.87;17.77;;;;;;;-5.72;100.00;96520.22;4996700;28;20456;-72
2022/03/04 03:26:13;;;;;;;27.20;18.20;;;;;;;-5.43;100.00;96535.88;4983040;28;20522;-72
2022/03/04 03:28:40;;;;;;;26.23;16.87;;;;;;;-5.33;100.00;96568.84;5009152;28;20522;-72
2022/03/04 03:31:07;;;;;;;25.57;17.77;;;;;;;-5.42;100.00;96538.22;4992694;28;20444;-72
2022/03/04 03:33:37;;;;;;;25.67;16.80;;;;;;;-5.26;100.00;96556.63;4993924;28;20873;-72
2022/03/04 03:36:04;;;;;;;30.07;17.43;;;;;;;-5.49;100.00;96559.91;5008743;28;20438;-72
2022/03/04 03:38:31;;;;;;;20.60;15.30;;;;;;;-5.75;100.00;96525.78;4991928;28;20476;-72
2022/03/04 03:40:58;;;;;;;24.40;17.07;;;;;;;-5.48;100.00;96558.91;4992496;28;20452;-72
2022/03/04 03:43:39;;;;;;;23.50;16.30;;;;;;;-5.40;100.00;96559.41;5009498;28;20817;-72
2022/03/04 03:46:05;;;;;;;25.10;17.60;;;;;;;-5.56;100.00;96544.56;5009161;28;20518;-72
2022/03/04 03:48:32;;;;;;;22.10;18.40;;;;;;;-5.38;100.00;96556.59;4992630;28;20872;-72
2022/03/04 03:51:00;;;;;;;26.77;18.30;;;;;;;-5.38;100.00;96564.31;4993839;28;20491;-72
2022/03/04 03:53:27;;;;;;;22.67;15.80;;;;;;;-5.80;100.00;96548.81;5008727;28;20465;-72
2022/03/04 03:55:53;;;;;;;21.10;16.53;;;;;;;-5.60;100.00;96569.19;4992479;28;20519;-72
2022/03/04 03:58:20;;;;;;;26.50;17.87;;;;;;;-5.73;100.00;96559.84;4992326;28;20463;-72
2022/03/04 04:00:47;;;;;;;24.20;18.20;;;;;;;-6.04;100.00;96514.50;5008453;28;20480;-72
2022/03/04 04:03:15;;;;;;;25.67;16.57;;;;;;;-5.58;100.00;96576.69;5008464;28;20487;-72
2022/03/04 04:05:42;;;;;;;26.93;17.57;;;;;;;-5.47;100.00;96574.16;5008692;28;20952;-72
2022/03/04 04:08:08;;;;;;;26.87;16.23;;;;;;;-5.47;100.00;96583.69;4993517;28;20538;-72
2022/03/04 04:10:35;;;;;;;26.77;18.03;;;;;;;-5.45;100.00;96573.94;4992082;28;20442;-72
2022/03/04 04:13:02;;;;;;;21.77;14.77;;;;;;;-5.59;100.00;96545.00;4992045;28;20498;-72
2022/03/04 04:15:28;;;;;;;20.47;14.90;;;;;;;-5.33;100.00;96584.31;5008556;28;20471;-72
2022/03/04 04:17:55;;;;;;;19.80;16.23;;;;;;;-5.50;100.00;96579.72;5008513;28;20448;-72
2022/03/04 04:20:22;;;;;;;27.10;19.40;;;;;;;-5.70;100.00;96584.34;5008261;28;20540;-72
2022/03/04 04:22:48;;;;;;;35.70;20.70;;;;;;;-5.81;100.00;96564.50;5008182;28;20495;-72
2022/03/04 04:25:15;;;;;;;32.90;23.30;;;;;;;-5.69;100.00;96585.94;5008093;28;20811;-72
2022/03/04 04:27:42;;;;;;;47.60;29.17;;;;;;;-5.76;100.00;96586.00;4991950;28;20456;-72
2022/03/04 04:30:09;;;;;;;37.47;23.03;;;;;;;-5.92;100.00;96565.25;4993377;28;20534;-72
2022/03/04 04:32:36;;;;;;;35.33;20.60;;;;;;;-5.79;100.00;96565.84;5008008;28;20445;-72
2022/03/04 04:35:04;;;;;;;28.93;19.30;;;;;;;-5.83;100.00;96561.34;4995304;28;20539;-72
2022/03/04 04:37:31;;;;;;;22.03;15.10;;;;;;;-5.91;100.00;96580.47;5008192;28;20909;-72
2022/03/04 04:39:58;;;;;;;22.37;16.37;;;;;;;-6.31;100.00;96546.66;5007968;28;20444;-72
2022/03/04 04:42:24;;;;;;;26.97;15.80;;;;;;;-6.22;100.00;96563.41;5008011;28;20492;-72
2022/03/04 04:44:52;;;;;;;25.00;16.07;;;;;;;-6.47;100.00;96553.16;4992921;28;20467;-72
2022/03/04 04:47:19;;;;;;;25.77;16.53;;;;;;;-6.10;100.00;96586.63;5008038;28;20506;-72
2022/03/04 04:49:45;;;;;;;20.00;15.30;;;;;;;-6.18;100.00;96568.88;4991518;28;20428;-72
2022/03/04 04:52:12;;;;;;;21.80;15.20;;;;;;;-6.10;100.00;96571.97;5007845;28;20495;-72
2022/03/04 04:54:39;;;;;;;23.17;14.87;;;;;;;-6.17;100.00;96555.03;4991418;28;20495;-72
2022/03/04 04:57:06;;;;;;;27.50;19.30;;;;;;;-5.93;100.00;96587.63;5007877;28;20861;-72
2022/03/04 04:59:33;;;;;;;30.10;17.77;;;;;;;-6.07;100.00;96563.03;5007832;28;20507;-72
2022/03/04 05:02:00;;;;;;;22.77;16.60;;;;;;;-6.11;100.00;96554.19;4992817;28;20555;-72
2022/03/04 05:04:27;;;;;;;25.23;15.83;;;;;;;-6.12;100.00;96565.47;4991549;28;20518;-72
2022/03/04 05:06:55;;;;;;;24.77;16.03;;;;;;;-6.09;100.00;96593.34;4991558;28;20436;-72
2022/03/04 05:09:22;;;;;;;26.17;15.80;;;;;;;-6.20;100.00;96581.97;5007625;28;20429;-72
2022/03/04 05:11:48;;;;;;;26.63;16.67;;;;;;;-6.29;100.00;96562.66;4992749;28;20512;-72
2022/03/04 05:14:15;;;;;;;26.73;15.53;;;;;;;-6.08;100.00;96567.41;4991400;28;20518;-72
2022/03/04 05:16:42;;;;;;;25.83;17.40;;;;;;;-6.18;100.00;96548.31;4991536;28;20483;-72
2022/03/04 05:19:08;;;;;;;20.20;15.20;;;;;;;-6.07;100.00;96578.47;5007596;28;20463;-72
2022/03/04 05:21:35;;;;;;;24.40;17.93;;;;;;;-6.27;100.00;96564.03;4975198;28;20523;-72
2022/03/04 05:24:03;;;;;;;28.43;17.57;;;;;;;-6.11;100.00;96582.47;4992484;28;20504;-72
2022/03/04 05:26:39;;;;;;;23.07;15.50;;;;;;;-6.28;100.00;96582.22;4992662;28;20479;-72
2022/03/04 05:29:10;;;;;;;22.20;16.23;;;;;;;-6.35;100.00;96586.69;4991392;28;20514;-72
2022/03/04 05:31:38;;;;;;;24.00;14.77;;;;;;;-6.21;100.00;96571.91;4991228;28;20443;-72
2022/03/04 05:34:06;;;;;;;24.27;16.00;;;;;;;-6.23;100.00;96589.34;5007716;28;20496;-72
2022/03/04 05:36:34;;;;;;;27.80;19.57;;;;;;;-6.02;100.00;96602.53;4991114;28;20452;-72
2022/03/04 05:39:02;;;;;;;28.43;19.00;;;;;;;-6.12;100.00;96579.13;4991276;28;20444;-72
2022/03/04 05:41:29;;;;;;;41.30;22.13;;;;;;;-6.23;100.00;96555.91;4992380;28;20804;-72
2022/03/04 05:43:56;;;;;;;29.33;20.33;;;;;;;-6.64;100.00;96558.06;4991111;28;20456;-72
2022/03/04 05:46:23;;;;;;;27.57;17.30;;;;;;;-6.47;100.00;96596.09;4991190;28;20444;-72
2022/03/04 05:48:50;;;;;;;33.37;15.87;;;;;;;-6.44;100.00;96604.16;4991193;28;20428;-71
2022/03/04 05:51:17;;;;;;;31.93;19.47;;;;;;;-6.73;100.00;96587.59;4992388;28;20483;-72
2022/03/04 05:53:44;;;;;;;42.17;23.07;;;;;;;-6.41;100.00;96605.50;4992448;28;20472;-72
2022/03/04 05:56:10;;;;;;;33.53;20.30;;;;;;;-6.48;100.00;96613.28;4991252;28;20503;-72
2022/03/04 05:58:38;;;;;;;31.47;18.70;;;;;;;-6.30;100.00;96615.09;4992802;28;20433;-72
2022/03/04 06:01:08;;;;;;;34.13;21.23;;;;;;;-6.15;100.00;96602.69;4991803;28;20531;-72
2022/03/04 06:03:36;;;;;;;30.10;20.73;;;;;;;-6.13;100.00;96629.00;4994242;28;20530;-71
2022/03/04 06:06:04;;;;;;;34.83;20.80;;;;;;;-5.97;100.00;96635.38;4996251;28;20913;-71
2022/03/04 06:08:31;;;;;;;26.47;16.77;;;;;;;-6.36;100.00;96601.31;4994893;28;20463;-72
2022/03/04 06:10:59;;;;;;;33.67;20.53;;;;;;;-6.26;100.00;96605.97;4994986;28;20867;-72
2022/03/04 06:13:25;;;;;;;29.63;19.37;;;;;;;-6.22;100.00;96643.13;5011160;28;20448;-72
2022/03/04 06:15:52;;;;;;;40.20;23.70;;;;;;;-6.27;100.00;96600.06;5010946;28;20483;-71
2022/03/04 06:18:19;;;;;;;37.30;22.27;;;;;;;-6.18;100.00;96652.00;5010738;28;20983;-72
2022/03/04 06:20:46;;;;;;;43.40;25.30;;;;;;;-6.17;100.00;96619.34;4995811;28;20519;-72
2022/03/04 06:23:13;;;;;;;38.20;24.07;;;;;;;-6.40;100.00;96627.69;5010897;28;20467;-71
2022/03/04 06:25:40;;;;;;;45.23;23.10;;;;;;;-6.14;100.00;96644.63;4995723;28;20865;-71
2022/03/04 06:28:07;;;;;;;39.00;25.70;;;;;;;-6.30;100.00;96612.53;5010753;28;20527;-72
2022/03/04 06:30:36;;;;;;;38.50;22.40;;;;;;;-6.15;100.00;96653.34;4995737;28;20443;-72
2022/03/04 06:35:50;;;;;;;30.47;20.90;;;;;;;-5.99;100.00;96645.88;5010686;28;20539;-71
2022/03/04 06:38:17;;;;;;;35.07;20.83;;;;;;;-6.08;100.00;96643.81;4994394;28;20524;-72
2022/03/04 06:40:45;;;;;;;42.77;25.53;;;;;;;-6.14;100.00;96635.16;4994692;28;20440;-72
2022/03/04 06:43:12;;;;;;;30.60;20.97;;;;;;;-5.96;100.00;96657.53;4995389;28;20549;-72
2022/03/04 06:45:43;;;;;;;35.10;20.47;;;;;;;-5.63;100.00;96654.56;5010573;28;20546;-72
2022/03/04 06:48:12;;;;;;;37.47;22.67;;;;;;;-5.73;100.00;96660.25;4994506;28;20526;-73
2022/03/04 06:50:39;;;;;;;38.17;24.83;;;;;;;-6.00;100.00;96631.44;4978197;28;20530;-72
2022/03/04 06:53:06;;;;;;;44.33;28.23;;;;;;;-5.62;100.00;96669.03;4978459;28;20463;-72
2022/03/04 06:55:33;;;;;;;57.07;28.63;;;;;;;-5.89;100.00;96635.06;4993905;28;20961;-72
2022/03/04 06:58:00;;;;;;;40.93;27.13;;;;;;;-5.83;100.00;96639.34;4993960;28;20498;-71
2022/03/04 07:00:27;;;;;;;38.50;27.23;;;;;;;-5.73;100.00;96651.75;5010243;28;20428;-72
2022/03/04 07:02:54;;;;;;;44.10;28.77;;;;;;;-5.46;100.00;96671.03;4993530;28;21004;-71
2022/03/04 07:05:21;;;;;;;39.90;28.57;;;;;;;-5.24;100.00;96665.41;4993693;28;20448;-72
2022/03/04 07:07:49;;;;;;;39.83;27.27;;;;;;;-5.04;100.00;96675.47;4993859;28;20883;-72
2022/03/04 07:10:16;;;;;;;39.50;28.40;;;;;;;-5.04;100.00;96675.47;5010103;28;20428;-72
2022/03/04 07:12:43;;;;;;;35.30;24.00;;;;;;;-5.10;100.00;96661.66;4994953;28;20508;-73
2022/03/04 07:15:10;;;;;;;86.70;54.17;;;;;;;-4.99;100.00;96658.34;4993761;28;20441;-72
2022/03/04 07:17:41;;;;;;;62.70;36.00;;;;;;;-4.78;100.00;96678.50;5009634;28;20954;-72
2022/03/04 07:20:12;;;;;;;40.20;30.03;;;;;;;-4.68;100.00;96675.34;5010657;28;20468;-72
2022/03/04 07:22:39;;;;;;;43.87;26.70;;;;;;;-4.54;100.00;96675.94;4994746;28;20487;-72
2022/03/04 07:25:08;;;;;;;42.70;27.73;;;;;;;-4.35;100.00;96668.91;5010010;28;20472;-72
2022/03/04 07:27:36;;;;;;;41.90;27.40;;;;;;;-4.14;100.00;96683.06;5009632;28;20535;-72
2022/03/04 07:30:07;;;;;;;43.67;26.10;;;;;;;-3.93;100.00;96682.50;5009758;28;20433;-72
2022/03/04 07:32:33;;;;;;;40.47;24.47;;;;;;;-3.79;100.00;96683.84;4994792;28;20535;-72
2022/03/04 07:35:00;;;;;;;43.10;26.80;;;;;;;-3.87;100.00;96635.16;5009835;28;20460;-72
2022/03/04 07:37:27;;;;;;;42.60;28.50;;;;;;;-3.34;100.00;96681.44;4993710;28;20515;-72
2022/03/04 07:39:54;;;;;;;49.33;30.33;;;;;;;-3.14;100.00;96683.63;5010060;28;20473;-72
2022/03/04 07:42:22;;;;;;;38.27;26.23;;;;;;;-3.14;100.00;96660.34;5010122;28;20504;-72
2022/03/04 07:44:50;;;;;;;45.00;28.23;;;;;;;-2.71;100.00;96685.69;4996597;28;20480;-72
2022/03/04 07:47:17;;;;;;;48.67;28.80;;;;;;;-2.42;100.00;96688.22;4993906;28;20572;-72
2022/03/04 07:49:43;;;;;;;48.37;26.93;;;;;;;-2.31;100.00;96671.84;4993517;28;21055;-72
2022/03/04 07:52:10;;;;;;;37.47;26.20;;;;;;;-1.95;100.00;96695.69;5009226;28;20436;-72
2022/03/04 07:54:37;;;;;;;43.80;26.47;;;;;;;-2.08;100.00;96689.03;4993020;28;20547;-73
2022/03/04 07:57:04;;;;;;;46.13;27.00;;;;;;;-1.86;100.00;96689.09;4994275;28;20429;-72
2022/03/04 07:59:33;;;;;;;51.83;28.23;;;;;;;-1.44;100.00;96704.16;5009651;28;20441;-72
2022/03/04 08:01:59;;;;;;;46.70;25.63;;;;;;;-1.76;100.00;96675.47;4993153;28;20868;-72
2022/03/04 08:04:26;;;;;;;43.60;28.00;;;;;;;-1.72;100.00;96687.75;4993141;28;20468;-72
2022/03/04 08:06:53;;;;;;;37.53;23.20;;;;;;;-1.66;100.00;96689.38;4994214;28;20463;-72
2022/03/04 08:09:20;;;;;;;35.83;24.30;;;;;;;-1.94;100.00;96663.59;4994043;28;20523;-73
2022/03/04 08:11:49;;;;;;;38.93;24.03;;;;;;;-1.67;100.00;96697.38;5009261;28;20444;-73
2022/03/04 08:14:16;;;;;;;36.43;22.93;;;;;;;-1.87;100.00;96670.19;4996127;28;20456;-72
2022/03/04 08:16:43;;;;;;;42.00;25.87;;;;;;;-2.27;100.00;96610.81;4994553;28;20436;-72
2022/03/04 08:19:10;;;;;;;38.87;24.00;;;;;;;-1.71;100.00;96675.56;4993078;28;20540;-72
2022/03/04 08:21:36;;;;;;;34.10;23.97;;;;;;;-1.44;100.00;96699.78;4992741;28;20446;-72
2022/03/04 08:24:03;;;;;;;35.90;22.13;;;;;;;-1.66;100.00;96697.13;5008857;28;20487;-73
2022/03/04 08:26:31;;;;;;;40.10;22.93;;;;;;;-1.60;100.00;96706.56;4991877;28;20545;-72
2022/03/04 08:29:00;;;;;;;36.73;21.57;;;;;;;-1.41;100.00;96699.28;5009179;28;20442;-72
2022/03/04 08:31:27;;;;;;;33.67;23.70;;;;;;;-1.43;100.00;96693.56;4993102;28;20441;-73
2022/03/04 08:33:54;;;;;;;39.10;22.77;;;;;;;-1.26;100.00;96711.66;4976867;28;20503;-71
2022/03/04 08:36:20;;;;;;;35.10;23.20;;;;;;;-1.27;100.00;96710.88;5009496;28;20465;-71
2022/03/04 08:38:47;;;;;;;38.33;23.60;;;;;;;-1.06;100.00;96685.97;4992224;28;20527;-72
2022/03/04 08:41:14;;;;;;;44.37;25.00;;;;;;;-0.69;100.00;96701.63;4992793;28;20425;-74
2022/03/04 08:43:41;;;;;;;41.77;22.57;;;;;;;-0.66;100.00;96674.44;4992690;28;20570;-72
2022/03/04 08:46:12;;;;;;;38.20;23.80;;;;;;;-0.60;100.00;96689.78;4987902;28;20444;-73
2022/03/04 08:48:39;;;;;;;38.03;21.10;;;;;;;-0.37;100.00;96700.91;5005062;28;20445;-73
2022/03/04 08:51:07;;;;;;;40.80;23.43;;;;;;;-0.25;100.00;96701.53;4993860;28;20445;-73
2022/03/04 08:53:34;;;;;;;38.87;24.43;;;;;;;-0.04;100.00;96702.47;5012813;28;20492;-72
2022/03/04 08:56:02;;;;;;;34.27;21.87;;;;;;;-0.43;100.00;96626.56;4992722;28;20441;-72
2022/03/04 08:58:29;;;;;;;39.50;22.97;;;;;;;0.12;100.00;96703.34;4994118;28;20452;-72
2022/03/04 09:00:56;;;;;;;41.07;23.20;;;;;;;0.03;100.00;96671.06;5012285;28;20898;-72
2022/03/04 09:03:24;;;;;;;35.50;21.10;;;;;;;0.40;100.00;96712.63;4993681;28;20491;-72
2022/03/04 09:05:51;;;;;;;32.97;20.67;;;;;;;0.27;100.00;96713.88;4978948;28;20441;-72
2022/03/04 09:08:18;;;;;;;31.13;20.40;;;;;;;0.21;100.00;96710.44;5010472;28;20437;-72
2022/03/04 09:10:45;;;;;;;35.73;21.73;;;;;;;0.16;100.00;96715.63;4995706;28;20488;-72
2022/03/04 09:13:12;;;;;;;31.20;19.73;;;;;;;-0.05;100.00;96662.69;4995366;28;20973;-72
2022/03/04 09:15:39;;;;;;;27.83;21.77;;;;;;;0.20;100.00;96695.09;5009522;28;20452;-72
2022/03/04 09:18:06;;;;;;;28.80;20.60;;;;;;;0.46;100.00;96715.00;4993150;28;20543;-72
2022/03/04 09:20:34;;;;;;;33.80;21.47;;;;;;;-0.01;100.00;96688.97;5008021;28;20438;-72
2022/03/04 09:23:01;;;;;;;29.03;20.40;;;;;;;0.45;100.00;96726.44;5010292;28;20457;-72
2022/03/04 09:25:27;;;;;;;32.53;20.00;;;;;;;0.34;100.00;96685.03;4992479;28;20475;-72
2022/03/04 09:27:55;;;;;;;24.73;17.33;;;;;;;0.64;100.00;96711.19;4992523;28;20464;-72
2022/03/04 09:30:22;;;;;;;28.57;19.73;;;;;;;0.75;100.00;96712.03;4992693;28;20445;-74
2022/03/04 09:32:49;;;;;;;25.00;16.07;;;;;;;0.90;100.00;96693.88;5009256;28;20461;-73
2022/03/04 09:35:20;;;;;;;21.17;11.63;;;;;;;1.10;100.00;96711.41;5013408;28;20436;-72
2022/03/04 09:37:49;;;;;;;10.80;7.80;;;;;;;1.17;100.00;96710.09;4995647;28;20454;-72
2022/03/04 09:40:16;;;;;;;10.10;6.83;;;;;;;1.08;100.00;96680.41;5012258;28;20499;-72
2022/03/04 09:42:43;;;;;;;14.30;7.90;;;;;;;1.35;100.00;96714.06;5002174;28;20447;-73
2022/03/04 09:45:11;;;;;;;10.60;6.70;;;;;;;1.65;100.00;96713.34;5013504;28;20444;-72
2022/03/04 09:47:40;;;;;;;13.13;8.10;;;;;;;1.39;100.00;96711.72;4989180;28;20480;-72
2022/03/04 09:50:08;;;;;;;14.53;7.50;;;;;;;1.46;100.00;96720.06;4987454;28;20511;-72
2022/03/04 09:52:35;;;;;;;8.70;7.03;;;;;;;1.45;100.00;96692.44;4996770;28;20781;-71
2022/03/04 09:55:03;;;;;;;11.90;7.80;;;;;;;1.31;100.00;96707.00;4997101;28;20981;-73
2022/03/04 09:57:30;;;;;;;11.30;7.70;;;;;;;1.22;100.00;96679.94;4997555;28;20427;-73
2022/03/04 09:59:58;;;;;;;10.17;6.30;;;;;;;1.56;100.00;96714.09;5013091;28;20966;-72
2022/03/04 10:02:25;;;;;;;14.90;6.63;;;;;;;1.53;100.00;96688.56;4997565;28;20792;-72
2022/03/04 10:05:00;;;;;;;12.03;7.20;;;;;;;1.03;100.00;96636.13;5015849;28;20482;-73
2022/03/04 10:07:27;;;;;;;11.43;6.30;;;;;;;1.42;100.00;96692.97;4998234;28;20470;-72
2022/03/04 10:09:54;;;;;;;10.93;6.20;;;;;;;1.75;100.00;96699.53;5014449;28;20493;-72
2022/03/04 10:12:22;;;;;;;12.60;7.63;;;;;;;1.71;100.00;96703.69;4997838;28;21036;-72
2022/03/04 10:15:00;;;;;;;10.63;7.13;;;;;;;2.03;97.52;96717.25;5025159;28;20465;-72
2022/03/04 10:17:32;;;;;;;11.67;7.00;;;;;;;2.26;98.13;96731.56;5004701;28;20506;-72
2022/03/04 10:20:01;;;;;;;12.53;8.77;;;;;;;2.10;96.28;96724.81;5012188;28;20428;-72
2022/03/04 10:22:38;;;;;;;9.13;6.30;;;;;;;2.19;96.43;96718.03;5024062;28;20448;-73
2022/03/04 10:25:24;;;;;;;8.57;3.57;;;;;;;2.05;91.17;96737.84;5008615;28;20487;-73
2022/03/04 10:27:52;;;;;;;8.60;5.30;;;;;;;1.76;92.17;96714.91;5007146;28;20433;-73
2022/03/04 10:30:32;;;;;;;6.80;5.30;;;;;;;1.80;93.10;96701.34;5005494;28;20562;-73
2022/03/04 10:33:09;;;;;;;8.10;4.80;;;;;;;1.84;91.75;96729.22;5010364;28;20455;-72
2022/03/04 10:35:38;;;;;;;7.87;5.27;;;;;;;1.91;92.27;96731.59;5007987;28;20447;-72
2022/03/04 10:38:06;;;;;;;11.20;6.37;;;;;;;1.69;91.85;96731.84;5024304;28;20434;-72
2022/03/04 10:40:35;;;;;;;8.80;6.40;;;;;;;1.58;93.21;96727.63;5000475;28;20439;-72
2022/03/04 10:43:06;;;;;;;10.70;6.83;;;;;;;1.40;93.00;96700.25;5004814;28;20463;-72
2022/03/04 10:45:35;;;;;;;10.70;7.30;;;;;;;1.74;92.82;96726.66;5006350;28;20457;-72
2022/03/04 10:48:20;;;;;;;11.00;6.50;;;;;;;2.13;92.26;96729.50;5003684;28;20442;-72
2022/03/04 10:50:51;;;;;;;8.30;6.00;;;;;;;2.31;93.50;96726.38;5009126;28;20420;-72
2022/03/04 10:53:23;;;;;;;9.30;6.10;;;;;;;1.98;91.84;96721.69;5025634;28;20531;-72
2022/03/04 10:56:04;;;;;;;8.47;6.40;;;;;;;2.11;92.77;96715.16;5010912;28;20425;-73
2022/03/04 10:58:38;;;;;;;13.40;7.50;;;;;;;2.10;92.21;96696.13;5025074;28;20442;-72
2022/03/04 11:01:09;;;;;;;8.07;6.30;;;;;;;2.30;90.79;96721.41;5010363;28;20438;-72
2022/03/04 11:03:41;;;;;;;8.20;7.07;;;;;;;2.19;89.24;96712.03;5018670;28;20481;-73
2022/03/04 11:06:13;;;;;;;14.73;9.67;;;;;;;2.28;90.94;96726.13;5020143;28;20440;-73
2022/03/04 11:08:42;;;;;;;12.10;7.50;;;;;;;2.19;91.44;96723.25;5000850;28;20461;-73
2022/03/04 11:11:10;;;;;;;10.63;8.10;;;;;;;2.08;91.47;96727.69;5014945;28;20433;-73
2022/03/04 11:13:37;;;;;;;14.37;8.50;;;;;;;1.96;90.18;96706.31;5010037;28;20860;-73
2022/03/04 11:16:07;;;;;;;13.97;8.50;;;;;;;2.24;90.78;96712.00;5009946;28;20464;-73
2022/03/04 11:18:34;;;;;;;9.93;7.90;;;;;;;2.32;90.59;96722.72;4977382;28;20529;-73